»·PEaware :: UAL1903 KBUR-KSFO

UAL1903 :: KBUR-KSFO

FLIGHT INFORMATION

Flight Status: Arrived
Operator:
United Airlines
More flights by this operator :: More flights under this callsign
Pilot: Luis R. (31517)
Aircraft: BOEING 737-800
(B738)
More flights by this aircraft type
Origin: KBUR Bob Hope-Burbank
United States
Destination: KSFO San Francisco Intl
United States
More flights between these airports :: More routes between these airports
Route: OROSZ2 COREZ MAKRS SERFR WWAVS1
File this flight plan on PilotEdge
Remarks: UNITED-VIRTUAL.COM
Altitude:
(Current/Filed)
30,000ft
Speed:
(Current/Filed)
473kts
Departed: 17-Nov-20 06:57 PM
Arrived: 17-Nov-20 07:55 PM
Distance/Time
Traveled:
283nm/0:58
Distance/Time
To Go:
Arrived

Flight Plot

Page will automatically refresh every two minutes.

Flight plan parsing failed; only flown route is shown


Map Options




Map Legend


Flown Route
Filed Route
Departure Airport
Arrival Airport
Navaid (VOR, NDB)
Fix

Horizontal Profiles

Position Reports

Time Latitude Longitude Heading Altitude Ground
Speed
17-Nov-20 18:36 34.195714 -118.354883 136 729ft 0kts
17-Nov-20 18:37 34.195714 -118.354883 136 729ft 0kts
17-Nov-20 18:38 34.195714 -118.354883 136 729ft 0kts
17-Nov-20 18:39 34.195714 -118.354883 136 729ft 0kts
17-Nov-20 18:40 34.195714 -118.354883 136 729ft 0kts
17-Nov-20 18:41 34.195714 -118.354883 136 729ft 0kts
17-Nov-20 18:42 34.195714 -118.354883 136 729ft 0kts
17-Nov-20 18:43 34.195714 -118.354883 136 729ft 0kts
17-Nov-20 18:44 34.195714 -118.354883 136 729ft 0kts
17-Nov-20 18:45 34.195714 -118.354883 136 729ft 0kts
17-Nov-20 18:46 34.195714 -118.354883 136 729ft 0kts
17-Nov-20 18:47 34.195714 -118.354883 136 729ft 0kts
17-Nov-20 18:48 34.195739 -118.355169 6 729ft 2kts
17-Nov-20 18:49 34.195392 -118.355154 345 729ft 0kts
17-Nov-20 18:50 34.195392 -118.355154 345 729ft 0kts
17-Nov-20 18:51 34.196567 -118.355488 347 729ft 10kts
17-Nov-20 18:52 34.200361 -118.355776 347 729ft 21kts
17-Nov-20 18:53 34.206267 -118.357413 347 729ft 20kts
17-Nov-20 18:54 34.211106 -118.358752 347 729ft 10kts
17-Nov-20 18:55 34.212161 -118.360186 248 729ft 7kts
17-Nov-20 18:56 34.195231 -118.355755 167 850ft 159kts
17-Nov-20 18:57 34.150937 -118.379847 221 3260ft 226kts
17-Nov-20 18:58 34.119940 -118.450116 290 6314ft 279kts
17-Nov-20 18:59 34.187311 -118.502282 325 9821ft 302kts
17-Nov-20 19:00 34.263036 -118.560586 322 12108ft 357kts
17-Nov-20 19:01 34.354108 -118.630284 323 14040ft 401kts
17-Nov-20 19:02 34.455213 -118.693235 325 16666ft 412kts
17-Nov-20 19:03 34.554806 -118.764599 324 18958ft 422kts
17-Nov-20 19:04 34.657611 -118.837535 324 20879ft 433kts
17-Nov-20 19:05 34.763407 -118.912459 324 22529ft 445kts
17-Nov-20 19:06 34.871198 -118.989434 323 23943ft 456kts
17-Nov-20 19:07 34.981579 -119.068514 323 25339ft 463kts
17-Nov-20 19:08 35.093867 -119.149122 323 26599ft 469kts
17-Nov-20 19:09 35.205944 -119.229919 323 28289ft 464kts
17-Nov-20 19:10 35.316345 -119.309225 323 29944ft 458kts
17-Nov-20 19:11 35.425986 -119.388613 322 30017ft 456kts
17-Nov-20 19:12 35.532491 -119.471470 307 30001ft 442kts
17-Nov-20 19:13 35.574955 -119.605272 277 30003ft 422kts
17-Nov-20 19:14 35.595987 -119.746761 275 30012ft 423kts
17-Nov-20 19:15 35.616645 -119.889059 274 30017ft 421kts
17-Nov-20 19:16 35.638147 -120.030358 274 30041ft 418kts
17-Nov-20 19:17 35.658444 -120.171581 274 30058ft 418kts
17-Nov-20 19:18 35.679076 -120.312662 277 30051ft 420kts
17-Nov-20 19:19 35.722575 -120.447665 288 30056ft 427kts
17-Nov-20 19:20 35.772921 -120.580395 288 30058ft 427kts
17-Nov-20 19:21 35.823113 -120.713263 288 30057ft 427kts
17-Nov-20 19:22 35.873691 -120.845763 288 30052ft 427kts
17-Nov-20 19:23 35.923741 -120.978556 288 30047ft 427kts
17-Nov-20 19:24 35.973871 -121.111416 288 30042ft 426kts
17-Nov-20 19:25 36.023152 -121.243996 287 30037ft 423kts
17-Nov-20 19:26 36.082010 -121.369958 308 30031ft 436kts
17-Nov-20 19:27 36.181291 -121.453502 318 29863ft 428kts
17-Nov-20 19:28 36.280352 -121.530266 317 28089ft 416kts
17-Nov-20 19:29 36.376627 -121.605746 317 26160ft 403kts
17-Nov-20 19:30 36.470230 -121.679391 316 24274ft 395kts
17-Nov-20 19:31 36.562903 -121.752329 317 22398ft 389kts
17-Nov-20 19:32 36.652802 -121.823651 317 20567ft 378kts
17-Nov-20 19:33 36.740029 -121.893273 315 18783ft 365kts
17-Nov-20 19:34 36.816021 -121.971690 309 17056ft 348kts
17-Nov-20 19:35 36.889963 -122.049893 310 15359ft 349kts
17-Nov-20 19:36 36.963746 -122.127525 310 13649ft 343kts
17-Nov-20 19:37 37.036209 -122.204321 311 11952ft 339kts
17-Nov-20 19:38 37.106425 -122.278500 315 11066ft 313kts
17-Nov-20 19:39 37.188550 -122.317527 339 10483ft 318kts
17-Nov-20 19:40 37.272344 -122.345115 339 9817ft 301kts
17-Nov-20 19:41 37.352131 -122.372474 339 9192ft 294kts
17-Nov-20 19:42 37.430458 -122.399509 339 8582ft 289kts
17-Nov-20 19:43 37.507667 -122.426198 339 7997ft 286kts
17-Nov-20 19:44 37.583810 -122.452416 339 7014ft 278kts
17-Nov-20 19:45 37.656213 -122.454952 29 6300ft 257kts
17-Nov-20 19:46 37.712139 -122.406554 33 5348ft 242kts
17-Nov-20 19:47 37.766522 -122.360279 33 3960ft 225kts
17-Nov-20 19:48 37.807935 -122.311339 97 2938ft 193kts
17-Nov-20 19:49 37.768086 -122.290447 192 2707ft 163kts
17-Nov-20 19:50 37.724354 -122.312242 198 1967ft 162kts
17-Nov-20 19:51 37.685584 -122.331177 206 1437ft 136kts
17-Nov-20 19:52 37.651079 -122.354179 205 643ft 143kts
17-Nov-20 19:53 37.618350 -122.375982 208 21ft 101kts
17-Nov-20 19:54 37.613768 -122.380195 299 21ft 2kts
17-Nov-20 19:55 37.615941 -122.380108 28 21ft 14kts
17-Nov-20 19:56 37.619082 -122.380665 300 21ft 11kts
17-Nov-20 19:57 37.619147 -122.383069 268 21ft 3kts
17-Nov-20 19:58 37.619211 -122.383523 282 21ft 0kts
17-Nov-20 19:59 37.619211 -122.383523 282 21ft 0kts

Navigation Log

Ident Type
Flight plan parsing failed, navigation log unavailable